Time;durP1;ratioP1;P1;durP2;ratioP2;P2;SDS_P1;SDS_P2;PMS_P1;PMS_P2;Temp;Humidity;BMP_temperature;BMP_pressure;BME280_temperature;BME280_humidity;BME280_pressure;Samples;Min_cycle;Max_cycle;Signal;HPM_P1;HPM_P2
2023/01/30 00:02:35;;;;;;;;;;;6.00;56.90;;;3.81;61.74;100927.22;12254591;19;19926;-83
2023/01/30 00:06:38;;;;;;;;;;;6.00;56.80;;;3.87;61.89;100933.97;12251658;19;19986;-84
2023/01/30 00:10:39;;;;;;;;;;;6.00;56.70;;;4.19;61.77;100982.28;12249725;19;20325;-84
2023/01/30 00:14:40;;;;;;;;;;;6.00;56.90;;;3.86;61.85;100917.63;12252851;19;19950;-84
2023/01/30 00:18:43;;;;;;;;;;;6.00;56.90;;;3.91;61.73;100913.19;12252498;19;19914;-83
2023/01/30 00:22:44;;;;;;;;;;;6.00;56.80;;;3.92;61.87;100912.31;12248924;19;19918;-84
2023/01/30 00:26:46;;;;;;;;;;;6.10;56.90;;;4.17;61.71;100924.63;12245591;19;19918;-84
2023/01/30 00:30:51;;;;;;;;;;;6.00;56.80;;;4.17;61.89;100914.28;12248609;19;19914;-83
2023/01/30 00:34:53;;;;;;;;;;;6.00;56.70;;;4.32;61.86;100929.41;12250140;19;19919;-83
2023/01/30 00:38:57;;;;;;;;;;;6.10;56.80;;;3.90;61.60;100840.91;12250627;19;19915;-84
2023/01/30 00:47:19;;;;;;;;;;;6.30;56.70;;;4.32;61.76;100895.78;12247654;19;19919;-84
2023/01/30 00:51:20;;;;;;;;;;;6.00;56.70;;;4.30;61.68;100851.03;12249717;19;19944;-84
2023/01/30 00:55:22;;;;;;;;;;;6.00;56.70;;;4.31;61.66;100855.31;12249092;19;19919;-85
2023/01/30 00:59:23;;;;;;;;;;;6.00;56.70;;;4.34;61.84;100834.53;12248773;19;19914;-84
2023/01/30 01:03:25;;;;;;;;;;;6.00;56.70;;;3.92;61.83;100739.22;12249557;19;19907;-84
2023/01/30 01:07:26;;;;;;;;;;;6.00;56.40;;;4.28;61.87;100795.09;12247227;19;19922;-84
2023/01/30 01:11:27;;;;;;;;;;;6.00;56.60;;;4.32;61.66;100794.09;12246305;19;19921;-84
2023/01/30 01:15:29;;;;;;;;;;;6.00;56.50;;;4.30;61.81;100782.97;12247561;19;19923;-84
2023/01/30 01:19:30;;;;;;;;;;;6.00;56.30;;;4.26;61.61;100802.03;12252097;19;20340;-84
2023/01/30 01:23:31;;;;;;;;;;;5.90;56.30;;;4.07;61.85;100744.84;12260643;19;19923;-84
2023/01/30 01:27:33;;;;;;;;;;;6.00;56.50;;;4.15;61.67;100759.25;12255973;19;19914;-84
2023/01/30 01:31:34;;;;;;;;;;;5.90;56.20;;;4.09;61.80;100707.75;12257774;19;19915;-84
2023/01/30 01:35:39;;;;;;;;;;;6.00;56.30;;;4.17;61.78;100702.34;12256987;19;19911;-84
2023/01/30 01:44:01;;;;;;;;;;;6.00;56.30;;;4.21;61.63;100727.22;12261490;19;19918;-84
2023/01/30 01:48:09;;;;;;;;;;;5.90;56.30;;;4.17;61.63;100707.53;12254242;19;19922;-84
2023/01/30 01:52:14;;;;;;;;;;;5.90;56.20;;;4.16;61.65;100721.34;12257364;19;19927;-84
2023/01/30 01:56:18;;;;;;;;;;;5.90;56.10;;;4.04;61.58;100712.19;12257499;19;19926;-85
2023/01/30 02:00:20;;;;;;;;;;;5.80;56.40;;;4.18;61.76;100740.22;12261443;19;19938;-84
2023/01/30 02:08:52;;;;;;;;;;;5.80;56.40;;;4.16;61.66;100701.53;12253379;19;20357;-84
2023/01/30 02:12:53;;;;;;;;;;;5.80;56.20;;;4.09;61.70;100678.47;12257284;19;19918;-84
2023/01/30 02:16:56;;;;;;;;;;;5.80;56.40;;;4.20;61.75;100666.09;12254356;19;20673;-84
2023/01/30 02:21:14;;;;;;;;;;;5.80;56.40;;;4.04;61.52;100626.94;12257200;19;19921;-84
2023/01/30 02:25:16;;;;;;;;;;;5.80;56.50;;;4.19;61.66;100651.47;12251602;19;19919;-84
2023/01/30 02:29:30;;;;;;;;;;;6.00;56.50;;;4.18;61.66;100623.94;12254310;19;19919;-84
2023/01/30 02:33:50;;;;;;;;;;;5.80;56.40;;;4.17;61.75;100617.06;12254347;19;20408;-84
2023/01/30 02:37:58;;;;;;;;;;;5.80;56.50;;;4.16;61.71;100607.66;12253328;19;19978;-83
2023/01/30 02:42:07;;;;;;;;;;;5.80;56.40;;;4.13;61.62;100595.66;12254374;19;19925;-83
2023/01/30 02:46:21;;;;;;;;;;;5.80;56.50;;;3.49;61.72;100491.72;12252235;19;19943;-83
2023/01/30 02:50:43;;;;;;;;;;;5.80;56.60;;;4.11;61.55;100594.03;12249554;19;20264;-84
2023/01/30 02:54:45;;;;;;;;;;;5.80;56.70;;;3.74;61.50;100526.22;12252969;19;20404;-84
2023/01/30 02:58:53;;;;;;;;;;;6.10;56.90;;;4.08;61.54;100556.19;12254695;19;19935;-84
2023/01/30 03:03:08;;;;;;;;;;;5.80;56.80;;;4.18;61.56;100556.72;12254832;19;19921;-84
2023/01/30 03:07:25;;;;;;;;;;;5.80;56.80;;;4.17;61.42;100542.13;12250105;19;20392;-83
2023/01/30 03:11:46;;;;;;;;;;;5.80;56.90;;;4.05;61.70;100493.41;12250805;19;19982;-84
2023/01/30 03:15:53;;;;;;;;;;;5.80;56.90;;;4.07;61.60;100510.56;12253528;19;19918;-84
2023/01/30 03:19:55;;;;;;;;;;;5.80;57.10;;;4.03;61.81;100510.72;12255124;19;19947;-83
2023/01/30 03:23:57;;;;;;;;;;;5.80;57.10;;;4.10;61.58;100519.97;12254513;19;19922;-84
2023/01/30 03:28:01;;;;;;;;;;;5.80;57.10;;;4.13;61.74;100514.69;12251352;19;20348;-84
2023/01/30 03:32:03;;;;;;;;;;;6.10;57.30;;;3.97;61.62;100488.53;12255612;19;19911;-84
2023/01/30 03:36:05;;;;;;;;;;;5.80;57.20;;;3.80;61.73;100452.88;12250998;19;19919;-83
2023/01/30 03:40:07;;;;;;;;;;;5.70;57.20;;;3.55;61.64;100407.16;12247725;19;19970;-83
2023/01/30 03:44:09;;;;;;;;;;;5.70;57.20;;;3.98;61.69;100488.47;12241566;19;19985;-83
2023/01/30 03:48:11;;;;;;;;;;;5.80;57.30;;;3.94;61.70;100465.34;12245312;19;19938;-83
2023/01/30 03:52:12;;;;;;;;;;;6.10;57.40;;;4.13;61.65;100507.81;12247567;19;19922;-83
2023/01/30 03:56:14;;;;;;;;;;;5.70;57.20;;;4.05;61.60;100472.75;12244487;19;20345;-83
2023/01/30 04:00:16;;;;;;;;;;;5.90;57.30;;;3.99;61.67;100432.47;12246102;19;19914;-83
2023/01/30 04:04:18;;;;;;;;;;;5.80;57.30;;;4.17;61.77;100457.69;12247772;19;19926;-83
2023/01/30 04:08:20;;;;;;;;;;;5.80;57.30;;;4.18;61.76;100461.13;12244494;19;19982;-83
2023/01/30 04:12:22;;;;;;;;;;;5.80;57.30;;;4.18;61.64;100449.03;12247256;19;19903;-83
2023/01/30 04:16:29;;;;;;;;;;;5.80;57.30;;;4.17;61.51;100431.84;12241722;19;19915;-83
2023/01/30 04:20:45;;;;;;;;;;;5.80;57.30;;;4.12;61.77;100420.81;12247191;19;19938;-83
2023/01/30 04:24:49;;;;;;;;;;;5.80;57.40;;;4.22;61.86;100418.78;12243640;19;19925;-83
2023/01/30 04:28:51;;;;;;;;;;;5.90;57.40;;;4.19;61.78;100409.41;12242592;19;20355;-83
2023/01/30 04:32:52;;;;;;;;;;;5.80;57.40;;;4.15;61.60;100391.47;12243908;19;19930;-83
2023/01/30 04:36:54;;;;;;;;;;;5.90;57.50;;;4.21;61.63;100399.00;12241461;19;20321;-83
2023/01/30 04:40:57;;;;;;;;;;;5.90;57.50;;;4.29;61.88;100406.50;12242313;19;19907;-83
2023/01/30 04:45:02;;;;;;;;;;;5.90;57.60;;;4.25;61.85;100398.00;12242337;19;19911;-83
2023/01/30 04:49:04;;;;;;;;;;;5.90;57.60;;;3.91;61.85;100329.38;12240468;19;19919;-84
2023/01/30 04:53:05;;;;;;;;;;;5.90;57.90;;;4.26;61.67;100373.84;12246043;19;19944;-83
2023/01/30 04:57:07;;;;;;;;;;;5.90;57.60;;;3.87;61.66;100298.56;12252453;19;19915;-83
2023/01/30 05:01:24;;;;;;;;;;;6.00;57.60;;;3.94;61.79;100284.53;12253753;19;19923;-83
2023/01/30 05:05:26;;;;;;;;;;;6.00;57.60;;;4.08;61.83;100302.13;12254461;19;19926;-83
2023/01/30 05:09:28;;;;;;;;;;;6.00;57.60;;;3.95;61.79;100271.56;12255046;19;19938;-83
2023/01/30 05:13:29;;;;;;;;;;;6.00;57.60;;;4.21;61.79;100298.22;12255154;19;19914;-83
2023/01/30 05:17:32;;;;;;;;;;;6.00;57.60;;;4.00;61.79;100263.66;12253486;19;19946;-83
2023/01/30 05:21:33;;;;;;;;;;;6.10;57.60;;;4.15;61.63;100285.53;12256098;19;19918;-83
2023/01/30 05:25:35;;;;;;;;;;;6.10;57.60;;;4.06;61.65;100260.03;12254047;19;19910;-83
2023/01/30 05:29:37;;;;;;;;;;;6.10;57.60;;;4.16;61.64;100274.31;12252779;19;19987;-83
2023/01/30 05:33:39;;;;;;;;;;;6.10;57.70;;;3.99;61.78;100244.72;12254104;19;19978;-83
2023/01/30 05:37:41;;;;;;;;;;;6.10;57.60;;;4.33;61.84;100299.53;12251254;19;19931;-82
2023/01/30 05:41:42;;;;;;;;;;;6.10;57.70;;;3.91;61.89;100223.47;12254786;19;19914;-83
2023/01/30 05:45:51;;;;;;;;;;;6.00;57.70;;;3.83;61.60;100202.25;12251336;19;20725;-83
2023/01/30 05:49:52;;;;;;;;;;;6.00;57.70;;;3.90;61.84;100220.97;12250973;19;19914;-83
2023/01/30 05:53:54;;;;;;;;;;;6.10;58.00;;;4.05;61.65;100237.66;12254049;19;19923;-83
2023/01/30 05:57:56;;;;;;;;;;;5.80;58.10;;;3.97;61.74;100206.94;12249544;19;20321;-83
2023/01/30 06:01:57;;;;;;;;;;;6.10;58.10;;;3.90;61.87;100184.81;12251242;19;20304;-83
2023/01/30 06:06:00;;;;;;;;;;;6.00;58.10;;;4.25;61.79;100224.84;12245103;19;19926;-83
2023/01/30 06:10:02;;;;;;;;;;;6.00;58.00;;;4.08;61.84;100198.78;12246470;19;20408;-83
2023/01/30 06:14:04;;;;;;;;;;;6.00;58.30;;;3.77;61.82;100148.25;12253010;19;19939;-83
2023/01/30 06:18:05;;;;;;;;;;;6.00;58.30;;;4.30;62.01;100229.88;12247672;19;19926;-83
2023/01/30 06:22:07;;;;;;;;;;;6.00;58.20;;;3.97;61.68;100179.38;12252726;19;19986;-83
2023/01/30 06:26:09;;;;;;;;;;;6.00;58.40;;;3.98;61.73;100182.78;12250475;19;19943;-83
2023/01/30 06:30:11;;;;;;;;;;;6.00;58.40;;;4.40;61.84;100247.56;12250385;19;19929;-83
2023/01/30 06:34:13;;;;;;;;;;;6.00;58.40;;;4.09;61.89;100185.81;12248875;19;19919;-83
2023/01/30 06:38:14;;;;;;;;;;;6.10;58.40;;;4.09;61.94;100185.81;12248412;19;19927;-83
2023/01/30 06:42:16;;;;;;;;;;;6.10;58.40;;;4.07;61.91;100181.59;12250798;19;19968;-83
2023/01/30 06:46:18;;;;;;;;;;;6.10;58.40;;;4.35;62.04;100235.69;12250353;19;19910;-83
2023/01/30 06:50:23;;;;;;;;;;;6.30;58.60;;;4.07;61.88;100171.28;12248265;19;19930;-83
2023/01/30 06:54:27;;;;;;;;;;;6.20;58.50;;;4.04;61.96;100164.47;12252038;19;19980;-83
2023/01/30 06:58:29;;;;;;;;;;;6.20;58.50;;;4.42;61.78;100222.47;12248576;19;19915;-83
2023/01/30 07:02:34;;;;;;;;;;;6.10;58.40;;;4.64;61.87;100245.78;12252836;19;19921;-84
2023/01/30 07:06:35;;;;;;;;;;;6.30;58.60;;;4.09;61.94;100152.22;12250221;19;19918;-84
2023/01/30 07:10:37;;;;;;;;;;;6.50;58.70;;;4.24;61.85;100143.06;12247902;19;20018;-83
2023/01/30 07:14:39;;;;;;;;;;;6.30;58.70;;;4.33;62.05;100153.03;12248964;19;19933;-83
2023/01/30 07:18:41;;;;;;;;;;;6.30;58.90;;;4.69;61.86;100206.78;12244859;19;19914;-83
2023/01/30 07:22:48;;;;;;;;;;;6.40;58.80;;;4.49;61.83;100150.69;12244662;19;19927;-83
2023/01/30 07:26:50;;;;;;;;;;;6.40;58.80;;;4.90;62.06;100205.09;12237980;19;19926;-83
2023/01/30 07:30:52;;;;;;;;;;;6.50;59.30;;;4.69;61.84;100162.81;12243510;19;19939;-84
2023/01/30 07:34:53;;;;;;;;;;;6.50;58.80;;;4.97;61.90;100191.03;12245238;19;19915;-84
2023/01/30 07:38:54;;;;;;;;;;;6.60;58.90;;;4.95;61.93;100179.06;12253328;19;19919;-83
2023/01/30 07:43:04;;;;;;;;;;;6.60;58.80;;;5.05;62.11;100203.63;12250722;19;20339;-84
2023/01/30 07:47:07;;;;;;;;;;;6.60;58.90;;;4.98;62.10;100192.69;12247906;19;19919;-83
2023/01/30 07:51:09;;;;;;;;;;;6.70;58.90;;;5.12;62.14;100199.91;12249693;19;19911;-83
2023/01/30 07:55:11;;;;;;;;;;;6.70;59.10;;;5.01;62.13;100186.56;12250249;19;19915;-84
2023/01/30 07:59:12;;;;;;;;;;;6.80;59.00;;;5.02;62.18;100185.66;12249441;19;19930;-81
2023/01/30 08:03:15;;;;;;;;;;;6.80;59.00;;;5.13;61.98;100190.38;12253431;19;20298;-84
2023/01/30 08:07:17;;;;;;;;;;;6.90;59.20;;;5.17;62.20;100197.97;12247940;19;19931;-82
2023/01/30 08:11:18;;;;;;;;;;;6.90;59.10;;;5.29;62.22;100213.00;12249198;19;19918;-82
2023/01/30 08:15:20;;;;;;;;;;;7.00;59.10;;;5.30;62.00;100200.88;12247154;19;20344;-82
2023/01/30 08:19:21;;;;;;;;;;;6.90;59.10;;;5.26;62.27;100188.97;12248519;19;19929;-82
2023/01/30 08:23:23;;;;;;;;;;;7.00;59.30;;;5.26;62.28;100187.22;12247482;19;20352;-82
2023/01/30 08:27:24;;;;;;;;;;;7.30;59.30;;;5.30;62.04;100188.78;12245717;19;19926;-82
2023/01/30 08:31:25;;;;;;;;;;;7.00;59.20;;;4.98;62.04;100134.94;12260326;19;19915;-82
2023/01/30 08:35:27;;;;;;;;;;;7.10;59.20;;;5.49;62.09;100201.78;12258048;19;19921;-82
2023/01/30 08:39:28;;;;;;;;;;;7.10;59.40;;;5.52;62.22;100199.06;12259925;19;19915;-83
2023/01/30 08:43:30;;;;;;;;;;;7.10;59.30;;;5.47;62.26;100175.13;12258724;19;19903;-82
2023/01/30 08:47:34;;;;;;;;;;;7.20;59.20;;;5.48;62.24;100160.41;12250845;19;19914;-82
2023/01/30 08:51:35;;;;;;;;;;;7.20;59.30;;;5.53;62.22;100184.38;12260349;19;19914;-82
2023/01/30 08:55:37;;;;;;;;;;;7.20;59.30;;;5.55;62.06;100178.22;12258784;19;19945;-83
2023/01/30 08:59:38;;;;;;;;;;;7.20;59.30;;;5.67;62.09;100195.00;12258458;19;20349;-83
2023/01/30 09:03:41;;;;;;;;;;;7.30;59.30;;;5.63;62.18;100183.06;12258342;19;20353;-83
2023/01/30 09:07:42;;;;;;;;;;;7.30;59.30;;;5.75;62.11;100205.84;12254159;19;20304;-83
2023/01/30 09:11:46;;;;;;;;;;;7.40;59.30;;;5.68;62.27;100181.13;12256853;19;19929;-82
2023/01/30 09:15:48;;;;;;;;;;;7.70;59.50;;;5.82;62.26;100200.41;12251527;19;19943;-82
2023/01/30 09:19:49;;;;;;;;;;;7.50;59.30;;;5.83;62.30;100200.31;12255506;19;20321;-83
2023/01/30 09:23:51;;;;;;;;;;;7.50;59.30;;;5.91;62.42;100202.56;12254555;19;19915;-82
2023/01/30 09:27:53;;;;;;;;;;;7.60;59.40;;;5.93;62.33;100214.59;12250235;19;19926;-83
2023/01/30 09:31:55;;;;;;;;;;;7.60;59.30;;;5.86;62.37;100183.78;12253652;19;19935;-82
2023/01/30 09:35:57;;;;;;;;;;;7.70;59.30;;;5.96;62.18;100192.88;12253138;19;19925;-82
2023/01/30 09:39:58;;;;;;;;;;;7.70;59.30;;;6.05;62.22;100208.03;12249946;19;19947;-83
2023/01/30 09:44:29;;;;;;;;;;;7.80;59.50;;;6.23;62.24;100231.44;12249914;19;19923;-84
2023/01/30 09:49:04;;;;;;;;;;;7.80;59.40;;;6.26;62.21;100229.53;12249583;19;19925;-83
2023/01/30 09:53:24;;;;;;;;;;;7.90;59.40;;;6.31;62.44;100218.97;12253072;19;19918;-82
2023/01/30 09:57:26;;;;;;;;;;;7.90;59.40;;;6.26;62.23;100197.59;12252088;19;19918;-84
2023/01/30 10:01:59;;;;;;;;;;;8.00;59.50;;;6.28;62.52;100186.22;12253090;19;19910;-84
2023/01/30 10:06:13;;;;;;;;;;;8.00;59.50;;;6.41;62.47;100194.28;12250298;19;19918;-84
2023/01/30 10:10:38;;;;;;;;;;;8.10;59.50;;;6.54;62.52;100192.81;12248324;19;20373;-85
2023/01/30 10:14:58;;;;;;;;;;;8.20;59.60;;;6.67;62.28;100202.59;12254949;19;19934;-84
2023/01/30 10:19:43;;;;;;;;;;;8.40;60.10;;;6.75;62.63;100201.34;12251541;19;19955;-83
2023/01/30 10:23:46;;;;;;;;;;;8.30;59.90;;;6.83;62.35;100201.81;12250199;19;19919;-83
2023/01/30 10:28:13;;;;;;;;;;;8.40;59.90;;;6.78;62.48;100156.22;12250616;19;19911;-83
2023/01/30 10:32:25;;;;;;;;;;;8.50;60.00;;;6.94;62.38;100188.31;12250798;19;19918;-83
2023/01/30 10:36:42;;;;;;;;;;;8.60;59.80;;;7.06;62.57;100187.69;12251064;19;19921;-83
2023/01/30 10:41:01;;;;;;;;;;;8.60;60.40;;;7.07;62.39;100173.81;12252600;19;19931;-83
2023/01/30 10:45:12;;;;;;;;;;;8.80;60.00;;;7.11;62.49;100164.09;12249005;19;19923;-83
2023/01/30 10:49:44;;;;;;;;;;;8.80;60.00;;;7.24;62.57;100164.34;12248090;19;20431;-83
2023/01/30 10:53:56;;;;;;;;;;;8.90;59.70;;;7.30;62.62;100177.00;12251259;19;19922;-83
2023/01/30 10:58:07;;;;;;;;;;;9.00;59.80;;;7.42;62.41;100173.78;12245359;19;19954;-83
2023/01/30 11:02:31;;;;;;;;;;;9.00;59.60;;;7.46;62.41;100177.91;12249892;19;20261;-83
2023/01/30 11:06:33;;;;;;;;;;;9.10;59.50;;;7.48;62.40;100160.50;12250047;19;19911;-83
2023/01/30 11:10:35;;;;;;;;;;;9.10;59.40;;;7.54;62.63;100154.97;12246860;19;19982;-83
2023/01/30 11:14:55;;;;;;;;;;;9.20;59.40;;;7.53;62.65;100147.25;12250610;19;19921;-83
2023/01/30 11:19:00;;;;;;;;;;;9.20;59.20;;;7.56;62.47;100151.44;12248707;19;19918;-83
2023/01/30 11:23:08;;;;;;;;;;;9.30;59.10;;;7.68;62.37;100148.22;12248008;19;19925;-83
2023/01/30 11:27:15;;;;;;;;;;;9.30;59.00;;;7.73;62.51;100133.22;12246092;19;19927;-83
2023/01/30 11:31:20;;;;;;;;;;;9.40;58.90;;;7.74;62.44;100117.53;12249722;19;19915;-83
2023/01/30 11:35:25;;;;;;;;;;;9.40;58.80;;;7.73;62.46;100107.22;12247749;19;19925;-83
2023/01/30 11:39:27;;;;;;;;;;;9.40;58.70;;;7.84;62.40;100107.50;12247691;19;19911;-83
2023/01/30 11:43:29;;;;;;;;;;;9.50;59.10;;;7.85;62.55;100096.16;12247177;19;19935;-83
2023/01/30 11:47:30;;;;;;;;;;;9.60;58.70;;;7.97;62.58;100081.69;12242970;19;19978;-83
2023/01/30 11:51:35;;;;;;;;;;;9.60;58.70;;;8.01;62.48;100077.13;12247232;19;19974;-83
2023/01/30 11:55:37;;;;;;;;;;;9.80;58.80;;;8.10;62.31;100077.47;12244467;19;19918;-84
2023/01/30 11:59:46;;;;;;;;;;;9.70;58.60;;;8.10;62.42;100066.22;12246191;19;19922;-83
2023/01/30 12:03:50;;;;;;;;;;;9.80;58.50;;;8.16;62.37;100076.31;12244409;19;19926;-83
2023/01/30 12:07:52;;;;;;;;;;;9.80;58.50;;;8.13;62.43;100055.66;12244891;19;19950;-83
2023/01/30 12:11:53;;;;;;;;;;;9.90;58.50;;;8.04;62.49;100027.56;12246939;19;19911;-83
2023/01/30 12:16:23;;;;;;;;;;;9.90;58.40;;;8.18;62.33;100035.41;12245849;19;19933;-83
2023/01/30 12:20:43;;;;;;;;;;;9.90;58.40;;;8.24;62.51;100053.31;12245194;19;20359;-83
2023/01/30 12:25:02;;;;;;;;;;;9.90;58.30;;;8.21;62.36;100061.28;12246183;19;20305;-82
2023/01/30 12:29:16;;;;;;;;;;;9.90;58.20;;;8.29;62.49;100103.31;12243921;19;20327;-83
2023/01/30 12:33:18;;;;;;;;;;;9.90;58.20;;;8.12;62.23;100030.56;12246141;19;19914;-82
2023/01/30 12:37:55;;;;;;;;;;;9.90;58.10;;;8.01;62.16;100038.97;12243385;19;20265;-83
2023/01/30 12:42:03;;;;;;;;;;;9.80;57.90;;;7.93;62.18;100044.59;12246029;19;19915;-83
2023/01/30 12:46:11;;;;;;;;;;;9.60;57.90;;;7.87;62.29;100042.34;12242580;19;19915;-83
2023/01/30 12:50:30;;;;;;;;;;;9.50;58.10;;;7.86;62.33;100034.66;12242184;19;19919;-86
2023/01/30 12:54:38;;;;;;;;;;;9.40;58.30;;;7.74;62.15;100018.78;12237642;19;19919;-84
2023/01/30 12:58:50;;;;;;;;;;;9.40;58.50;;;7.58;62.45;99983.31;12244827;19;19918;-86
2023/01/30 13:03:31;;;;;;;;;;;9.40;58.70;;;7.88;62.39;100036.19;12245946;19;19933;-83
2023/01/30 13:07:48;;;;;;;;;;;9.40;58.70;;;7.85;62.36;100020.78;12242441;19;19915;-84
2023/01/30 13:12:21;;;;;;;;;;;9.40;58.80;;;7.92;62.37;100021.28;12244770;19;20532;-82
2023/01/30 13:16:44;;;;;;;;;;;9.50;58.90;;;7.98;62.33;100016.59;12252487;19;19918;-83
2023/01/30 13:21:16;;;;;;;;;;;9.60;58.90;;;8.09;62.38;100023.78;12259175;19;19918;-83
2023/01/30 13:26:18;;;;;;;;;;;9.60;58.80;;;8.06;62.46;99991.94;12255662;19;19915;-83
2023/01/30 13:30:19;;;;;;;;;;;9.70;58.70;;;8.09;62.31;100002.97;12252443;19;19922;-84
2023/01/30 13:34:30;;;;;;;;;;;9.70;58.60;;;8.22;62.39;99997.09;12258744;19;19982;-83
2023/01/30 13:38:33;;;;;;;;;;;9.80;58.40;;;8.18;62.42;100004.22;12251116;19;19914;-83
2023/01/30 13:42:44;;;;;;;;;;;9.80;58.20;;;8.03;62.35;99960.91;12253945;19;19923;-83
2023/01/30 13:46:46;;;;;;;;;;;9.90;58.10;;;8.08;62.36;99953.69;12251389;19;19919;-83
2023/01/30 13:51:06;;;;;;;;;;;9.90;58.20;;;8.31;62.25;99976.56;12255191;19;19918;-84
2023/01/30 13:55:26;;;;;;;;;;;9.90;57.80;;;8.40;62.19;99981.28;12249857;19;19923;-82
2023/01/30 13:59:51;;;;;;;;;;;9.90;58.10;;;8.41;62.45;99993.38;12255908;19;19935;-83
2023/01/30 14:03:53;;;;;;;;;;;10.00;57.60;;;8.37;62.10;100002.25;12251214;19;19918;-84
2023/01/30 14:07:55;;;;;;;;;;;10.10;57.70;;;8.32;61.97;99993.03;12252922;19;20480;-84
2023/01/30 14:11:59;;;;;;;;;;;10.00;57.50;;;8.17;62.17;99990.38;12255484;19;19926;-83
2023/01/30 14:16:03;;;;;;;;;;;9.90;57.90;;;8.22;62.17;100029.13;12251889;19;20334;-83
2023/01/30 14:20:19;;;;;;;;;;;10.10;58.10;;;8.16;62.25;100024.28;12253150;19;19918;-83
2023/01/30 14:24:26;;;;;;;;;;;9.90;58.10;;;8.09;62.12;100051.56;12252656;19;20325;-83
2023/01/30 14:28:27;;;;;;;;;;;9.70;58.10;;;8.07;62.21;100058.59;12248147;19;19930;-83
2023/01/30 14:32:50;;;;;;;;;;;9.70;58.20;;;8.00;61.95;100072.88;12254032;19;19922;-84
2023/01/30 14:36:52;;;;;;;;;;;9.60;58.30;;;7.78;62.21;100049.78;12252150;19;20405;-84
2023/01/30 14:40:59;;;;;;;;;;;9.50;58.30;;;7.84;62.22;100086.69;12253784;19;19918;-84
2023/01/30 14:45:13;;;;;;;;;;;9.40;58.30;;;7.65;62.11;100060.03;12254995;19;19926;-84
2023/01/30 14:49:25;;;;;;;;;;;9.40;58.30;;;7.63;62.08;100064.47;12251441;19;19922;-84
2023/01/30 14:53:26;;;;;;;;;;;9.30;58.30;;;7.33;61.99;100054.78;12252800;19;19938;-85
2023/01/30 14:57:33;;;;;;;;;;;9.20;58.50;;;7.51;62.16;100100.56;12248139;19;20318;-85
2023/01/30 15:02:02;;;;;;;;;;;9.10;58.60;;;7.63;62.05;100126.81;12253354;19;19914;-85
2023/01/30 15:06:05;;;;;;;;;;;9.10;59.00;;;7.45;61.96;100116.50;12250988;19;19924;-84
2023/01/30 15:10:28;;;;;;;;;;;9.10;59.10;;;7.57;62.16;100142.75;12248709;19;19926;-84
2023/01/30 15:14:37;;;;;;;;;;;9.00;59.00;;;7.47;62.15;100144.97;12251974;19;19933;-85
2023/01/30 15:19:01;;;;;;;;;;;9.00;58.90;;;7.48;62.22;100163.09;12252208;19;20266;-84
2023/01/30 15:23:15;;;;;;;;;;;9.00;58.80;;;7.43;62.30;100144.28;12252112;19;19919;-84
2023/01/30 15:27:36;;;;;;;;;;;8.90;58.80;;;7.30;62.23;100130.25;12250615;19;19911;-84
2023/01/30 15:31:38;;;;;;;;;;;8.90;58.80;;;7.29;62.18;100147.59;12249805;19;19949;-84
2023/01/30 15:35:40;;;;;;;;;;;8.80;58.70;;;7.26;62.20;100157.28;12251112;19;19910;-84
2023/01/30 15:39:41;;;;;;;;;;;8.90;58.70;;;6.86;62.11;100121.19;12248282;19;19918;-86
2023/01/30 15:44:17;;;;;;;;;;;8.80;58.80;;;7.11;62.15;100151.13;12250999;19;20255;-85
2023/01/30 15:48:48;;;;;;;;;;;8.70;58.80;;;7.14;62.17;100178.69;12245944;19;20359;-85
2023/01/30 15:52:50;;;;;;;;;;;8.70;58.80;;;7.19;62.28;100189.69;12250815;19;19915;-85
2023/01/30 15:56:53;;;;;;;;;;;8.70;58.90;;;7.15;62.30;100190.75;12246255;19;19923;-85
2023/01/30 16:00:58;;;;;;;;;;;8.70;58.90;;;7.17;62.03;100194.13;12251193;19;20008;-84
2023/01/30 16:05:22;;;;;;;;;;;8.60;58.90;;;7.18;62.34;100180.22;12251525;19;19914;-84
2023/01/30 16:09:24;;;;;;;;;;;8.70;59.00;;;7.05;62.13;100175.63;12248333;19;19933;-84
2023/01/30 16:13:26;;;;;;;;;;;8.70;59.00;;;6.94;62.34;100149.38;12246761;19;19951;-84
2023/01/30 16:17:30;;;;;;;;;;;8.70;58.90;;;7.18;62.26;100181.03;12243429;19;19926;-84
2023/01/30 16:21:34;;;;;;;;;;;8.70;58.90;;;7.16;62.39;100182.06;12241327;19;20576;-84
2023/01/30 16:25:35;;;;;;;;;;;8.80;58.90;;;7.05;62.32;100177.41;12248363;19;20409;-84
2023/01/30 16:29:51;;;;;;;;;;;8.80;58.90;;;7.21;62.03;100213.81;12243645;19;20428;-84
2023/01/30 16:33:53;;;;;;;;;;;8.80;58.80;;;7.16;62.31;100208.03;12247956;19;19914;-84
2023/01/30 16:37:56;;;;;;;;;;;8.80;58.80;;;7.25;62.28;100234.38;12242828;19;19923;-84
2023/01/30 16:41:59;;;;;;;;;;;8.80;58.90;;;7.17;62.10;100210.53;12246941;19;19915;-84
2023/01/30 16:46:23;;;;;;;;;;;8.70;58.90;;;7.28;62.18;100249.78;12246502;19;19923;-83
2023/01/30 16:50:25;;;;;;;;;;;8.80;59.00;;;7.22;62.17;100249.25;12247938;19;20011;-83
2023/01/30 16:54:28;;;;;;;;;;;8.80;58.90;;;7.17;62.25;100249.47;12261352;19;20329;-83
2023/01/30 16:58:32;;;;;;;;;;;8.80;58.90;;;7.18;62.10;100253.75;12254416;19;20230;-82
2023/01/30 17:02:36;;;;;;;;;;;8.80;59.10;;;7.22;62.25;100264.84;12263077;19;19925;-83
2023/01/30 17:06:41;;;;;;;;;;;8.70;59.10;;;7.13;62.25;100253.16;12256711;19;20269;-85
2023/01/30 17:10:50;;;;;;;;;;;8.80;59.20;;;7.16;62.23;100275.53;12260313;19;19922;-82
2023/01/30 17:15:15;;;;;;;;;;;8.70;59.10;;;7.07;62.22;100267.28;12268496;19;19925;-83
2023/01/30 17:19:16;;;;;;;;;;;8.70;59.30;;;7.10;62.38;100292.22;12268408;19;19960;-82
2023/01/30 17:23:19;;;;;;;;;;;8.90;59.50;;;7.15;62.24;100294.59;12269962;19;19915;-83
2023/01/30 17:27:21;;;;;;;;;;;8.70;59.20;;;7.22;62.28;100311.59;12260583;19;20277;-82
2023/01/30 17:31:22;;;;;;;;;;;8.70;59.10;;;7.24;62.39;100315.78;12254877;19;19911;-82
2023/01/30 17:35:24;;;;;;;;;;;8.80;59.30;;;7.19;62.36;100320.38;12256763;19;20335;-84
2023/01/30 17:39:25;;;;;;;;;;;8.70;59.30;;;7.01;62.27;100292.66;12257504;19;19921;-83
2023/01/30 17:43:27;;;;;;;;;;;8.80;59.30;;;7.20;62.20;100331.59;12256968;19;19930;-83
2023/01/30 17:47:29;;;;;;;;;;;8.80;59.30;;;7.30;62.44;100361.41;12250524;19;20245;-82
2023/01/30 17:51:30;;;;;;;;;;;8.80;59.20;;;7.22;62.51;100338.38;12253448;19;19994;-83
2023/01/30 17:55:33;;;;;;;;;;;8.80;59.40;;;7.26;62.31;100360.72;12256321;19;19919;-83
2023/01/30 17:59:34;;;;;;;;;;;8.80;59.30;;;7.32;62.32;100362.19;12257544;19;19934;-82
2023/01/30 18:03:36;;;;;;;;;;;8.90;59.20;;;7.32;62.29;100376.00;12256196;19;20337;-83
2023/01/30 18:07:39;;;;;;;;;;;9.20;59.60;;;6.94;62.44;100325.00;12255433;19;19922;-84
2023/01/30 18:11:40;;;;;;;;;;;8.90;59.30;;;7.37;62.52;100399.16;12257265;19;19932;-84
2023/01/30 18:15:41;;;;;;;;;;;8.90;59.40;;;7.26;62.36;100368.50;12257402;19;19939;-83
2023/01/30 18:19:43;;;;;;;;;;;8.90;59.40;;;7.48;62.53;100407.28;12257855;19;19910;-84
2023/01/30 18:23:44;;;;;;;;;;;9.00;59.30;;;7.50;62.25;100426.22;12253008;19;20349;-83
2023/01/30 18:27:46;;;;;;;;;;;9.00;59.40;;;7.55;62.45;100439.00;12253064;19;19903;-84
2023/01/30 18:31:48;;;;;;;;;;;9.00;59.30;;;7.26;62.48;100380.63;12256621;19;19938;-83
2023/01/30 18:35:49;;;;;;;;;;;9.10;59.30;;;7.48;62.58;100429.81;12256578;19;20230;-83
2023/01/30 18:39:50;;;;;;;;;;;9.10;59.60;;;7.58;62.50;100453.59;12258639;19;19997;-83
2023/01/30 18:43:54;;;;;;;;;;;9.10;59.10;;;7.67;62.41;100458.34;12257898;19;20248;-84
2023/01/30 18:47:55;;;;;;;;;;;9.20;59.10;;;7.65;62.47;100455.84;12255963;19;19917;-83
2023/01/30 18:51:57;;;;;;;;;;;9.20;58.90;;;7.63;62.38;100454.25;12259534;19;20002;-82
2023/01/30 18:55:58;;;;;;;;;;;9.30;58.80;;;7.60;62.45;100451.78;12256426;19;19910;-83
2023/01/30 18:59:59;;;;;;;;;;;9.40;58.90;;;7.76;62.31;100483.94;12254344;19;19978;-82
2023/01/30 19:04:02;;;;;;;;;;;9.60;58.80;;;7.82;62.45;100496.63;12258858;19;19918;-83
2023/01/30 19:08:04;;;;;;;;;;;9.40;58.70;;;7.79;62.45;100494.19;12258710;19;19914;-82